Time;durP1;ratioP1;P1;durP2;ratioP2;P2;SDS_P1;SDS_P2;PMS_P1;PMS_P2;Temp;Humidity;BMP_temperature;BMP_pressure;BME280_temperature;BME280_humidity;BME280_pressure;Samples;Min_cycle;Max_cycle;Signal;HPM_P1;HPM_P2
2021/12/24 00:01:47;;;;;;;31.05;23.92;;;7.50;99.90;;;;;;6185345;23;20032;-86
2021/12/24 00:04:22;;;;;;;27.92;22.30;;;7.50;99.90;;;;;;6161238;23;20123;-86
2021/12/24 00:06:57;;;;;;;32.40;24.65;;;7.60;99.90;;;;;;6161361;23;20009;-87
2021/12/24 00:09:42;;;;;;;;;;;;;;;;;;;;;
2021/12/24 00:12:16;;;;;;;32.15;23.20;;;7.60;99.90;;;;;;6185936;23;20396;-86
2021/12/24 00:14:48;;;;;;;34.33;26.30;;;7.60;99.90;;;;;;6185868;23;20101;-87
2021/12/24 00:17:29;;;;;;;36.42;27.02;;;7.60;99.90;;;;;;6185948;23;20424;-86
2021/12/24 00:37:19;;;;;;;40.60;29.52;;;7.70;99.90;;;;;;6186252;23;20055;-87
2021/12/24 00:40:02;;;;;;;38.08;27.90;;;7.80;99.90;;;;;;6161869;23;20327;-87
2021/12/24 00:42:46;;;;;;;34.15;26.20;;;7.80;99.90;;;;;;6185954;23;20427;-86
2021/12/24 00:45:21;;;;;;;37.10;26.58;;;7.80;99.90;;;;;;6162933;23;20005;-86
2021/12/24 00:47:50;;;;;;;38.33;28.98;;;7.80;99.90;;;;;;6185824;23;20305;-86
2021/12/24 00:50:22;;;;;;;42.67;30.00;;;7.90;99.90;;;;;;6186285;23;20001;-87
2021/12/24 00:52:51;;;;;;;39.05;27.92;;;7.90;99.90;;;;;;6185925;23;20335;-86
2021/12/24 00:55:25;;;;;;;37.65;27.73;;;8.00;99.90;;;;;;6212144;23;20009;-86
2021/12/24 00:58:04;;;;;;;39.05;27.55;;;7.90;99.90;;;;;;6213293;23;20053;-87
2021/12/24 01:00:42;;;;;;;37.30;27.63;;;8.00;99.90;;;;;;6213623;23;20004;-87
2021/12/24 01:03:13;;;;;;;36.63;26.58;;;8.00;99.90;;;;;;6175155;23;20008;-86
2021/12/24 01:05:47;;;;;;;43.25;29.15;;;8.00;99.90;;;;;;6186304;23;20473;-86
2021/12/24 01:08:15;;;;;;;33.92;25.85;;;8.10;99.90;;;;;;6185918;23;20438;-86
2021/12/24 01:11:09;;;;;;;36.28;25.40;;;8.10;99.90;;;;;;6185057;23;20009;-86
2021/12/24 01:13:35;;;;;;;32.60;23.98;;;8.10;99.90;;;;;;6185255;23;20033;-87
2021/12/24 01:16:08;;;;;;;36.72;25.25;;;8.10;99.90;;;;;;6184914;23;20092;-86
2021/12/24 01:24:46;;;;;;;29.90;22.20;;;8.20;99.90;;;;;;6146700;23;20020;-86
2021/12/24 01:44:26;;;;;;;23.15;17.40;;;8.40;99.90;;;;;;6185396;23;20051;-87
2021/12/24 01:46:57;;;;;;;23.45;18.27;;;8.40;99.90;;;;;;6162533;23;20009;-87
2021/12/24 01:49:28;;;;;;;23.65;17.65;;;8.40;99.90;;;;;;6185687;23;20004;-87
2021/12/24 01:52:07;;;;;;;22.50;17.50;;;8.50;99.90;;;;;;6184696;23;20009;-86
2021/12/24 01:54:36;;;;;;;19.58;16.38;;;8.50;99.90;;;;;;6185189;23;20363;-86
2021/12/24 01:57:05;;;;;;;21.45;15.60;;;8.50;99.90;;;;;;6184625;23;20009;-87
2021/12/24 01:59:31;;;;;;;19.02;15.68;;;8.50;99.90;;;;;;6184990;23;20004;-88
2021/12/24 02:01:57;;;;;;;19.23;15.60;;;8.60;99.90;;;;;;6184712;23;20411;-86
2021/12/24 02:04:35;;;;;;;;;;;;;;;;;;;;;
2021/12/24 02:07:02;;;;;;;22.65;17.00;;;8.60;99.90;;;;;;6185996;23;20387;-86
2021/12/24 02:09:38;;;;;;;;;;;;;;;;;;;;;
2021/12/24 02:12:11;;;;;;;20.85;16.73;;;8.70;99.90;;;;;;6186384;23;20113;-85
2021/12/24 02:14:48;;;;;;;20.77;17.25;;;8.70;99.90;;;;;;6185600;23;20080;-86
2021/12/24 02:28:37;;;;;;;29.30;20.40;;;8.80;99.90;;;;;;6195112;23;20399;-86
2021/12/24 02:31:05;;;;;;;27.42;20.88;;;8.80;99.90;;;;;;6212803;23;19996;-87
2021/12/24 02:33:36;;;;;;;29.27;21.58;;;8.80;99.90;;;;;;6212406;23;19996;-86
2021/12/24 02:36:02;;;;;;;28.70;21.35;;;8.80;99.90;;;;;;6188574;23;20049;-89
2021/12/24 02:38:32;;;;;;;26.42;20.75;;;8.80;99.90;;;;;;6201539;23;20001;-87
2021/12/24 02:41:10;;;;;;;;;;;;;;;;;;;;;
2021/12/24 02:43:44;;;;;;;30.70;23.50;;;8.90;99.90;;;;;;6186898;23;20076;-86
2021/12/24 02:46:15;;;;;;;36.25;24.55;;;8.90;99.90;;;;;;6184910;23;20012;-87
2021/12/24 02:54:12;;;;;;;38.22;26.85;;;8.90;99.90;;;;;;6184561;23;20020;-86
2021/12/24 02:56:48;;;;;;;37.15;25.77;;;9.00;99.90;;;;;;6183936;23;19997;-86
2021/12/24 02:59:18;;;;;;;35.90;25.55;;;9.00;99.90;;;;;;6183757;23;20001;-86
2021/12/24 03:01:51;;;;;;;35.70;26.95;;;9.00;99.90;;;;;;6184486;23;20005;-87
2021/12/24 03:04:19;;;;;;;42.30;28.23;;;9.00;99.90;;;;;;6185798;23;20035;-87
2021/12/24 03:06:47;;;;;;;45.40;28.52;;;9.00;99.90;;;;;;6183907;23;20027;-87
2021/12/24 03:09:30;;;;;;;;;;;;;;;;;;;;;
2021/12/24 03:12:01;;;;;;;40.22;28.75;;;9.00;99.90;;;;;;6184499;23;20077;-89
2021/12/24 03:14:30;;;;;;;48.75;31.38;;;9.00;99.90;;;;;;6184014;23;20013;-87
2021/12/24 03:17:01;;;;;;;47.55;30.95;;;9.00;99.90;;;;;;6183644;23;20510;-86
2021/12/24 03:19:45;;;;;;;;;;;;;;;;;;;;;
2021/12/24 03:22:42;;;;;;;51.20;32.17;;;9.10;99.90;;;;;;6185476;23;20085;-87
2021/12/24 03:25:14;;;;;;;44.50;31.17;;;9.00;99.90;;;;;;6184182;23;20087;-87
2021/12/24 03:27:49;;;;;;;;;;;;;;;;;;;;;
2021/12/24 03:30:19;;;;;;;42.67;29.63;;;9.10;99.90;;;;;;6185618;23;20362;-87
2021/12/24 03:32:44;;;;;;;52.60;33.35;;;9.10;99.90;;;;;;6183999;23;20043;-86
2021/12/24 03:35:10;;;;;;;52.63;33.03;;;9.10;99.90;;;;;;6184201;23;20359;-87
2021/12/24 03:37:38;;;;;;;41.45;30.92;;;9.10;99.90;;;;;;6184299;23;19997;-86
2021/12/24 03:40:15;;;;;;;;;;;;;;;;;;;;;
2021/12/24 03:42:46;;;;;;;43.03;28.20;;;9.20;99.90;;;;;;6184432;23;20084;-87
2021/12/24 03:48:25;;;;;;;41.45;27.95;;;9.20;99.90;;;;;;6180310;23;20293;-86
2021/12/24 03:56:34;;;;;;;39.63;25.13;;;9.20;99.90;;;;;;6186484;23;20280;-87
2021/12/24 03:59:12;;;;;;;36.78;23.83;;;9.20;99.90;;;;;;6159772;23;20139;-86
2021/12/24 04:01:57;;;;;;;36.78;24.45;;;9.20;99.90;;;;;;6186428;23;20009;-86
2021/12/24 04:04:31;;;;;;;32.28;22.70;;;9.30;99.90;;;;;;6209030;23;20450;-88
2021/12/24 04:07:07;;;;;;;29.65;21.42;;;9.30;99.90;;;;;;6211947;23;20055;-87
2021/12/24 04:09:37;;;;;;;29.90;19.52;;;9.30;99.90;;;;;;6213214;23;19989;-86
2021/12/24 04:12:06;;;;;;;27.42;18.50;;;9.30;99.90;;;;;;6212402;23;20013;-87
2021/12/24 04:14:32;;;;;;;27.63;19.02;;;9.30;99.90;;;;;;6198706;23;20001;-87
2021/12/24 04:17:00;;;;;;;28.52;17.98;;;9.30;99.90;;;;;;6186156;23;20498;-86
2021/12/24 04:25:14;;;;;;;27.92;18.15;;;9.30;99.90;;;;;;6187279;23;20015;-87
2021/12/24 04:27:52;;;;;;;;;;;;;;;;;;;;;
2021/12/24 04:30:31;;;;;;;24.83;16.73;;;9.30;99.90;;;;;;6186959;23;20080;-86
2021/12/24 04:33:15;;;;;;;;;;;;;;;;;;;;;
2021/12/24 04:35:55;;;;;;;30.67;18.25;;;9.30;99.90;;;;;;6186810;23;20388;-87
2021/12/24 04:38:33;;;;;;;28.65;18.65;;;9.40;99.90;;;;;;6185602;23;20431;-87
2021/12/24 05:03:43;;;;;;;28.40;16.92;;;9.30;99.90;;;;;;6095873;23;20065;-86
2021/12/24 05:06:29;;;;;;;23.05;15.65;;;9.40;99.90;;;;;;6071977;23;20045;-87
2021/12/24 05:09:07;;;;;;;27.25;15.82;;;9.40;99.90;;;;;;6071717;23;20010;-86
2021/12/24 05:11:36;;;;;;;27.83;16.10;;;9.40;99.90;;;;;;6089264;23;20024;-86
2021/12/24 05:14:21;;;;;;;28.10;16.42;;;9.40;99.90;;;;;;6161280;23;20082;-87
2021/12/24 05:22:30;;;;;;;22.13;15.07;;;9.40;99.90;;;;;;6186802;23;20020;-87
2021/12/24 05:25:10;;;;;;;26.40;15.18;;;9.40;99.90;;;;;;6161512;23;20342;-87
2021/12/24 05:27:51;;;;;;;21.17;14.23;;;9.40;99.90;;;;;;6185153;23;20004;-87
2021/12/24 05:30:20;;;;;;;22.88;14.13;;;9.40;99.90;;;;;;6162425;23;20453;-86
2021/12/24 05:32:48;;;;;;;23.90;14.15;;;9.40;99.90;;;;;;6185877;23;20009;-87
2021/12/24 05:35:30;;;;;;;22.83;14.10;;;9.40;99.90;;;;;;6185903;23;20044;-87
2021/12/24 05:38:01;;;;;;;;;;;9.40;99.90;;;;;;6139640;23;20031;-87
2021/12/24 05:40:47;;;;;;;21.98;13.20;;;9.40;99.90;;;;;;6190601;23;19904;-87
2021/12/24 05:43:13;;;;;;;21.25;12.77;;;9.40;99.90;;;;;;6213369;23;19997;-85
2021/12/24 05:45:44;;;;;;;21.38;12.25;;;9.40;99.90;;;;;;6212593;23;20020;-87
2021/12/24 05:48:18;;;;;;;23.85;12.93;;;9.40;99.90;;;;;;6213288;23;20009;-86
2021/12/24 05:51:02;;;;;;;22.15;12.40;;;9.40;99.90;;;;;;6181920;23;20044;-87
2021/12/24 05:53:30;;;;;;;19.77;12.77;;;9.40;99.90;;;;;;6164179;23;20064;-86
2021/12/24 05:56:01;;;;;;;20.20;12.10;;;9.40;99.90;;;;;;6185894;23;20029;-86
2021/12/24 05:59:19;;;;;;;20.97;12.17;;;9.40;99.90;;;;;;6185104;23;20084;-86
2021/12/24 06:01:50;;;;;;;19.02;10.18;;;9.40;99.90;;;;;;6185095;23;20009;-87
2021/12/24 06:04:19;;;;;;;19.98;11.82;;;9.40;99.90;;;;;;6184973;23;20005;-87
2021/12/24 06:06:47;;;;;;;18.00;11.65;;;9.40;99.90;;;;;;6184872;23;20063;-87
2021/12/24 06:09:18;;;;;;;18.70;11.43;;;9.40;99.90;;;;;;6184863;23;20501;-87
2021/12/24 06:11:44;;;;;;;22.67;11.48;;;9.40;99.90;;;;;;6160276;23;20394;-87
2021/12/24 06:14:32;;;;;;;23.02;11.98;;;9.40;99.90;;;;;;6185224;23;20032;-87
2021/12/24 06:17:10;;;;;;;21.08;11.48;;;9.40;99.90;;;;;;6184532;23;20427;-87
2021/12/24 06:19:39;;;;;;;20.50;10.88;;;9.40;99.90;;;;;;6159270;23;20506;-87
2021/12/24 06:22:08;;;;;;;15.15;9.85;;;9.40;99.90;;;;;;6184810;23;20492;-88
2021/12/24 06:25:02;;;;;;;19.85;9.68;;;9.40;99.90;;;;;;6185092;23;20427;-88
2021/12/24 06:28:00;;;;;;;20.38;10.98;;;9.40;99.90;;;;;;6171578;23;20435;-89
2021/12/24 06:30:50;;;;;;;19.80;10.90;;;9.40;99.90;;;;;;6185497;23;20083;-88
2021/12/24 06:33:35;;;;;;;20.15;10.38;;;9.40;99.90;;;;;;6185077;23;20001;-88
2021/12/24 06:36:19;;;;;;;;;;;;;;;;;;;;;
2021/12/24 06:39:40;;;;;;;18.77;9.82;;;9.40;99.90;;;;;;6186060;23;20079;-90
2021/12/24 06:42:14;;;;;;;17.48;11.02;;;9.30;99.90;;;;;;6185061;23;20009;-87
2021/12/24 06:53:21;;;;;;;15.98;9.30;;;9.30;99.90;;;;;;6186329;23;20013;-88
2021/12/24 06:55:55;;;;;;;16.33;9.20;;;9.30;99.90;;;;;;6184138;23;20434;-89
2021/12/24 06:58:37;;;;;;;;;;;;;;;;;;;;;
2021/12/24 07:01:09;;;;;;;17.13;9.27;;;9.30;99.90;;;;;;6185838;23;20088;-88
2021/12/24 07:06:43;;;;;;;18.63;10.48;;;9.30;99.90;;;;;;6160115;23;20020;-89
2021/12/24 07:09:42;;;;;;;;;;;;;;;;;;;;;
2021/12/24 07:12:26;;;;;;;18.63;8.73;;;9.30;99.90;;;;;;6185384;23;20089;-88
2021/12/24 07:14:55;;;;;;;19.98;8.40;;;9.20;99.90;;;;;;6184984;23;20301;-87
2021/12/24 07:17:38;;;;;;;18.23;8.20;;;9.20;99.90;;;;;;6165905;23;20099;-87
2021/12/24 07:20:23;;;;;;;;;;;;;;;;;;;;;
2021/12/24 07:23:12;;;;;;;;;;;;;;;;;;;;;
2021/12/24 07:26:06;;;;;;;20.70;9.63;;;9.20;99.90;;;;;;6206866;23;20008;-87
2021/12/24 07:29:13;;;;;;;18.48;8.38;;;9.10;99.90;;;;;;6187254;23;20001;-87
2021/12/24 07:31:53;;;;;;;;;;;;;;;;;;;;;
2021/12/24 07:34:39;;;;;;;19.33;8.30;;;9.20;99.90;;;;;;6186274;23;20494;-86
2021/12/24 07:37:21;;;;;;;19.42;8.35;;;9.20;99.90;;;;;;6184835;23;20076;-87
2021/12/24 07:39:52;;;;;;;20.67;8.30;;;9.10;99.90;;;;;;6183748;23;20430;-87
2021/12/24 07:42:38;;;;;;;20.50;8.27;;;9.10;99.90;;;;;;6183953;23;20001;-87
2021/12/24 07:45:08;;;;;;;23.13;8.88;;;9.10;99.90;;;;;;6186700;23;20015;-87
2021/12/24 07:47:54;;;;;;;;;;;;;;;;;;;;;
2021/12/24 07:53:24;;;;;;;25.38;8.90;;;9.10;99.90;;;;;;6187494;23;20009;-87
2021/12/24 07:56:01;;;;;;;;;;;;;;;;;;;;;
2021/12/24 07:58:27;;;;;;;18.15;9.27;;;9.10;99.90;;;;;;6187476;23;20079;-87
2021/12/24 08:01:03;;;;;;;;;;;;;;;;;;;;;
2021/12/24 08:03:48;;;;;;;23.15;9.77;;;9.10;99.90;;;;;;6187412;23;20088;-86
2021/12/24 08:06:21;;;;;;;20.13;9.82;;;9.10;99.90;;;;;;6186456;23;20001;-87
2021/12/24 08:09:15;;;;;;;23.30;9.73;;;9.10;99.90;;;;;;6186024;23;20001;-88
2021/12/24 08:12:20;;;;;;;19.30;9.63;;;9.00;99.90;;;;;;6185215;23;20013;-87
2021/12/24 08:15:03;;;;;;;22.27;9.55;;;9.10;99.90;;;;;;6183566;23;20059;-88
2021/12/24 08:18:15;;;;;;;17.65;9.43;;;9.00;99.90;;;;;;6186444;23;20462;-86
2021/12/24 08:20:48;;;;;;;14.35;9.75;;;9.10;99.90;;;;;;6185562;23;20087;-86
2021/12/24 08:23:23;;;;;;;21.27;9.57;;;9.10;99.90;;;;;;6138858;23;20013;-87
2021/12/24 08:26:07;;;;;;;26.45;13.05;;;9.00;99.90;;;;;;6186489;23;20005;-87
2021/12/24 08:28:38;;;;;;;23.27;12.35;;;9.00;99.90;;;;;;6186828;23;20304;-87
2021/12/24 08:34:16;;;;;;;19.65;11.95;;;9.00;99.90;;;;;;6188117;23;20335;-88
2021/12/24 08:40:31;;;;;;;;;;;;;;;;;;;;;
2021/12/24 08:42:59;;;;;;;20.73;11.80;;;9.10;99.90;;;;;;6188187;23;20778;-87
2021/12/24 08:45:26;;;;;;;22.60;12.00;;;9.10;99.90;;;;;;6186892;23;20008;-86
2021/12/24 08:47:57;;;;;;;22.02;12.05;;;9.00;99.90;;;;;;6187008;23;20024;-87
2021/12/24 08:50:28;;;;;;;22.30;12.40;;;9.00;99.90;;;;;;6163266;23;20002;-87
2021/12/24 08:52:59;;;;;;;25.42;12.18;;;9.00;99.90;;;;;;6190166;23;20041;-87
2021/12/24 08:55:29;;;;;;;25.35;12.98;;;9.00;99.90;;;;;;6213594;23;20005;-87
2021/12/24 08:58:32;;;;;;;25.43;12.83;;;9.00;99.90;;;;;;6213344;23;20012;-87
2021/12/24 09:01:03;;;;;;;30.30;15.00;;;9.00;99.90;;;;;;6213258;23;20324;-86
2021/12/24 09:03:36;;;;;;;27.42;14.75;;;9.00;99.90;;;;;;6184478;23;20005;-86
2021/12/24 09:06:20;;;;;;;;;;;;;;;;;;;;;
2021/12/24 09:09:06;;;;;;;24.30;14.05;;;9.00;99.90;;;;;;6187779;23;20522;-88
2021/12/24 09:12:31;;;;;;;;;;;;;;;;;;;;;
2021/12/24 09:18:22;;;;;;;29.67;15.50;;;9.00;99.90;;;;;;6172389;23;20013;-88
2021/12/24 09:20:48;;;;;;;27.33;14.13;;;9.00;99.90;;;;;;6188988;23;20001;-88
2021/12/24 09:23:19;;;;;;;25.23;13.85;;;9.00;99.90;;;;;;6186464;23;20008;-87
2021/12/24 09:26:05;;;;;;;28.98;13.52;;;9.10;99.90;;;;;;6186663;23;20016;-88
2021/12/24 09:28:47;;;;;;;30.05;13.95;;;9.10;99.90;;;;;;6187733;23;19997;-87
2021/12/24 09:31:15;;;;;;;27.55;13.77;;;9.10;99.90;;;;;;6163535;23;20001;-87
2021/12/24 09:33:44;;;;;;;26.23;13.73;;;9.10;99.90;;;;;;6162346;23;20084;-87
2021/12/24 09:36:23;;;;;;;;;;;;;;;;;;;;;
2021/12/24 09:38:58;;;;;;;26.75;13.65;;;9.10;99.90;;;;;;6186638;23;20084;-87
2021/12/24 09:41:26;;;;;;;26.25;13.10;;;9.00;99.90;;;;;;6185734;23;20088;-86
2021/12/24 09:44:09;;;;;;;25.27;13.10;;;9.10;99.90;;;;;;6186341;23;20001;-87
2021/12/24 09:46:42;;;;;;;24.58;11.77;;;9.10;99.90;;;;;;6164131;23;20005;-86
2021/12/24 09:49:12;;;;;;;23.92;11.88;;;9.10;99.90;;;;;;6161527;23;20008;-86
2021/12/24 09:51:47;;;;;;;30.88;13.63;;;9.10;99.90;;;;;;6185834;23;20016;-87
2021/12/24 09:54:29;;;;;;;27.75;14.45;;;9.10;99.90;;;;;;6185653;23;20086;-87
2021/12/24 09:57:14;;;;;;;25.27;14.05;;;9.10;99.90;;;;;;6185076;23;20037;-87
2021/12/24 09:59:57;;;;;;;24.25;12.00;;;9.10;99.90;;;;;;6163513;23;20010;-86
2021/12/24 10:02:57;;;;;;;25.73;13.35;;;9.10;99.90;;;;;;6186304;23;20327;-88
2021/12/24 10:05:50;;;;;;;23.58;13.75;;;9.20;99.90;;;;;;6106665;23;20059;-87
2021/12/24 10:08:38;;;;;;;24.80;13.38;;;9.10;99.90;;;;;;6185417;23;20005;-87
2021/12/24 10:11:11;;;;;;;26.52;12.38;;;9.20;99.90;;;;;;6161832;23;20009;-86
2021/12/24 10:13:46;;;;;;;29.25;15.07;;;9.10;99.90;;;;;;6185351;23;20005;-86
2021/12/24 10:16:27;;;;;;;25.48;13.93;;;9.20;99.90;;;;;;6184705;23;20013;-86
2021/12/24 10:19:00;;;;;;;28.90;13.43;;;9.20;99.90;;;;;;6185757;23;20054;-87
2021/12/24 10:21:34;;;;;;;27.95;13.05;;;9.20;99.90;;;;;;6187271;23;20091;-87
2021/12/24 10:24:11;;;;;;;26.30;13.52;;;9.20;99.90;;;;;;6187415;23;20075;-88
2021/12/24 10:30:06;;;;;;;;;;;;;;;;;;;;;
2021/12/24 10:33:15;;;;;;;26.30;12.95;;;9.20;99.90;;;;;;6213471;23;20016;-91
2021/12/24 10:36:55;;;;;;;;;;;;;;;;;;;;;
2021/12/24 10:39:52;;;;;;;25.90;12.27;;;9.20;99.90;;;;;;6205061;23;20046;-84
2021/12/24 10:43:03;;;;;;;23.52;13.05;;;9.30;99.90;;;;;;6185746;23;20519;-89
2021/12/24 10:46:27;;;;;;;24.17;11.67;;;9.20;99.90;;;;;;6162845;23;20009;-89
2021/12/24 10:56:05;;;;;;;;;;;;;;;;;;;;;
2021/12/24 10:59:15;;;;;;;;;;;;;;;;;;;;;
2021/12/24 11:02:11;;;;;;;19.85;10.23;;;9.30;99.90;;;;;;6095926;23;20065;-89
2021/12/24 11:05:14;;;;;;;20.35;10.38;;;9.30;99.90;;;;;;6166971;23;20011;-90
2021/12/24 11:08:45;;;;;;;;;;;;;;;;;;;;;
2021/12/24 11:14:36;;;;;;;27.60;11.45;;;9.30;99.90;;;;;;6144422;23;20087;-88
2021/12/24 11:17:26;;;;;;;;;;;;;;;;;;;;;
2021/12/24 11:20:08;;;;;;;21.27;10.27;;;9.30;99.90;;;;;;6187274;23;20075;-89
2021/12/24 11:22:55;;;;;;;27.58;11.15;;;9.30;99.90;;;;;;6163958;23;20008;-89
2021/12/24 11:26:01;;;;;;;27.60;10.70;;;9.20;99.90;;;;;;6187070;23;20056;-89
2021/12/24 11:35:31;;;;;;;20.13;9.80;;;9.30;99.90;;;;;;6082751;23;20006;-91
2021/12/24 11:55:36;;;;;;;;;;;;;;;;;;;;;
2021/12/24 11:58:34;;;;;;;;;;;;;;;;;;;;;
2021/12/24 12:05:28;;;;;;;;;;;;;;;;;;;;;
2021/12/24 12:12:16;;;;;;;;;;;;;;;;;;;;;
2021/12/24 12:19:00;;;;;;;;;;;;;;;;;;;;;
2021/12/24 12:22:42;;;;;;;;;;;;;;;;;;;;;
2021/12/24 12:36:12;;;;;;;19.23;9.52;;;9.40;99.90;;;;;;5954927;24;20023;-92
2021/12/24 12:38:43;;;;;;;23.30;10.20;;;9.50;99.90;;;;;;5932076;24;20512;-89
2021/12/24 12:41:44;;;;;;;;;;;;;;;;;;;;;
2021/12/24 12:47:38;;;;;;;;;;;;;;;;;;;;;
2021/12/24 12:50:53;;;;;;;21.45;11.30;;;9.50;99.90;;;;;;6135926;23;20084;-88
2021/12/24 12:53:46;;;;;;;;;;;;;;;;;;;;;
2021/12/24 12:56:33;;;;;;;;;;;;;;;;;;;;;
2021/12/24 13:00:01;;;;;;;;;;;;;;;;;;;;;
2021/12/24 13:02:19;;;;;;;22.02;10.30;;;9.50;99.90;;;;;;6135371;23;20101;-87
2021/12/24 13:05:21;;;;;;;27.45;11.95;;;9.50;99.90;;;;;;6131398;23;20017;-88
2021/12/24 13:07:52;;;;;;;19.17;10.77;;;9.50;99.90;;;;;;6131714;23;20519;-88
2021/12/24 13:10:29;;;;;;;;;;;;;;;;;;;;;
2021/12/24 13:13:12;;;;;;;17.27;10.00;;;9.50;99.90;;;;;;6134311;23;20092;-88
2021/12/24 13:15:54;;;;;;;22.13;11.73;;;9.50;99.90;;;;;;6131126;23;20002;-87
2021/12/24 13:18:33;;;;;;;22.67;12.43;;;9.50;99.90;;;;;;6181610;23;20032;-87
2021/12/24 13:23:42;;;;;;;19.65;12.05;;;9.50;99.90;;;;;;6196306;23;20009;-87
2021/12/24 13:26:13;;;;;;;23.60;12.50;;;9.50;99.90;;;;;;6161303;23;20012;-87
2021/12/24 13:29:12;;;;;;;18.40;11.30;;;9.50;99.90;;;;;;6185981;23;20143;-87
2021/12/24 13:31:41;;;;;;;24.73;12.60;;;9.50;99.90;;;;;;6185843;23;20005;-86
2021/12/24 13:34:12;;;;;;;22.67;11.65;;;9.50;99.90;;;;;;6185681;23;20066;-86
2021/12/24 13:36:40;;;;;;;;;;;9.50;99.90;;;;;;6186033;23;20005;-86
2021/12/24 13:39:14;;;;;;;17.73;11.70;;;9.50;99.90;;;;;;6185356;23;19900;-85
2021/12/24 13:41:41;;;;;;;24.77;11.57;;;9.50;99.90;;;;;;6185783;23;20009;-85
2021/12/24 13:44:29;;;;;;;17.63;11.50;;;9.50;99.90;;;;;;6194494;23;20020;-86
2021/12/24 13:47:17;;;;;;;20.15;10.90;;;9.50;99.90;;;;;;6213138;23;20009;-85
2021/12/24 13:55:37;;;;;;;24.27;10.65;;;9.50;99.90;;;;;;6190088;23;20016;-86
2021/12/24 13:58:08;;;;;;;16.13;9.33;;;9.50;99.90;;;;;;6185665;23;20075;-85
2021/12/24 14:00:42;;;;;;;16.65;10.32;;;9.50;99.90;;;;;;6184784;23;20237;-85
2021/12/24 14:03:10;;;;;;;17.42;9.13;;;9.50;99.90;;;;;;6184637;23;20066;-87
2021/12/24 14:05:56;;;;;;;16.70;9.00;;;9.50;99.90;;;;;;6184601;23;20016;-87
2021/12/24 14:08:37;;;;;;;21.65;9.80;;;9.50;99.90;;;;;;6183745;23;20387;-89
2021/12/24 14:11:28;;;;;;;;;;;;;;;;;;;;;
2021/12/24 14:14:26;;;;;;;18.20;9.32;;;9.50;99.90;;;;;;6186936;23;19999;-88
2021/12/24 14:20:15;;;;;;;17.27;9.93;;;9.50;99.90;;;;;;6172650;23;20001;-88
2021/12/24 14:23:46;;;;;;;20.65;10.27;;;9.50;99.90;;;;;;6184557;23;20001;-87
2021/12/24 14:26:50;;;;;;;20.48;10.20;;;9.40;99.90;;;;;;6177951;23;20009;-87
2021/12/24 14:29:39;;;;;;;15.63;8.90;;;9.50;99.90;;;;;;6186993;23;20009;-87
2021/12/24 14:32:19;;;;;;;17.33;9.48;;;9.50;99.90;;;;;;6186003;23;20005;-86
2021/12/24 14:34:58;;;;;;;16.70;10.45;;;9.50;99.90;;;;;;6186831;23;20004;-87
2021/12/24 14:37:51;;;;;;;20.70;11.18;;;9.50;99.90;;;;;;6186251;23;20084;-88
2021/12/24 14:40:58;;;;;;;20.30;10.75;;;9.40;99.90;;;;;;6184940;23;20065;-88
2021/12/24 14:43:37;;;;;;;16.77;10.10;;;9.50;99.90;;;;;;6185393;23;20017;-87
2021/12/24 14:46:17;;;;;;;18.50;11.40;;;9.50;99.90;;;;;;6186060;23;20370;-87
2021/12/24 14:49:06;;;;;;;20.15;10.27;;;9.50;99.90;;;;;;6186230;23;20032;-88
2021/12/24 14:51:31;;;;;;;22.38;10.73;;;9.40;99.90;;;;;;6185936;23;20005;-88
2021/12/24 14:54:06;;;;;;;20.48;10.32;;;9.50;99.90;;;;;;6185499;23;20088;-86
2021/12/24 14:56:47;;;;;;;25.75;11.65;;;9.40;99.90;;;;;;6185637;23;20021;-88
2021/12/24 14:59:21;;;;;;;19.60;10.85;;;9.40;99.90;;;;;;6163211;23;20005;-88
2021/12/24 15:01:51;;;;;;;16.88;10.20;;;9.40;99.90;;;;;;6161307;23;20040;-86
2021/12/24 15:04:20;;;;;;;21.88;10.35;;;9.40;99.90;;;;;;6187825;23;20009;-87
2021/12/24 15:07:37;;;;;;;19.67;10.50;;;9.40;99.90;;;;;;6187113;23;20012;-87
2021/12/24 15:10:20;;;;;;;18.08;9.68;;;9.40;99.90;;;;;;6188541;23;20067;-88
2021/12/24 15:20:42;;;;;;;21.63;11.65;;;9.40;99.90;;;;;;6171508;23;20029;-88
2021/12/24 15:36:24;;;;;;;13.85;10.13;;;9.30;99.90;;;;;;6068673;23;20025;-89
2021/12/24 15:42:24;;;;;;;13.75;9.93;;;9.30;99.90;;;;;;6067490;23;20037;-88
2021/12/24 15:45:34;;;;;;;14.35;9.07;;;9.40;99.90;;;;;;6067858;23;20018;-89
2021/12/24 15:48:06;;;;;;;9.65;6.28;;;9.30;99.90;;;;;;6110241;23;20381;-90
2021/12/24 15:50:42;;;;;;;5.53;4.50;;;9.30;99.90;;;;;;6131710;23;20079;-86
2021/12/24 15:53:26;;;;;;;4.45;3.25;;;9.30;99.90;;;;;;6107614;23;20088;-89
2021/12/24 15:56:04;;;;;;;4.43;2.47;;;9.20;99.90;;;;;;6131589;23;20006;-89
2021/12/24 15:58:37;;;;;;;3.78;2.55;;;9.20;99.90;;;;;;6131266;23;20435;-88
2021/12/24 16:01:34;;;;;;;6.38;2.42;;;9.10;99.90;;;;;;6131609;23;20012;-89
2021/12/24 16:04:07;;;;;;;2.78;2.10;;;9.10;99.90;;;;;;6131846;23;20040;-89
2021/12/24 16:07:40;;;;;;;;;;;;;;;;;;;;;
2021/12/24 16:10:14;;;;;;;;;;;9.00;99.90;;;;;;6149323;23;20041;-88
2021/12/24 16:12:50;;;;;;;5.60;3.35;;;9.00;99.90;;;;;;6111335;23;20282;-88
2021/12/24 16:15:32;;;;;;;8.25;5.82;;;9.00;99.90;;;;;;6109314;23;20009;-88
2021/12/24 16:18:12;;;;;;;6.57;3.55;;;8.90;99.90;;;;;;6138159;23;20055;-89
2021/12/24 16:20:45;;;;;;;3.63;2.60;;;8.90;99.90;;;;;;6162559;23;20009;-86
2021/12/24 16:23:22;;;;;;;3.65;2.50;;;8.80;99.90;;;;;;6187080;23;20454;-89
2021/12/24 16:25:56;;;;;;;3.30;2.33;;;8.80;99.90;;;;;;6186941;23;20032;-89
2021/12/24 16:28:21;;;;;;;3.30;2.75;;;8.80;99.90;;;;;;6186680;23;20001;-88
2021/12/24 16:30:50;;;;;;;2.97;2.45;;;8.80;99.90;;;;;;6161500;23;20085;-88
2021/12/24 16:33:27;;;;;;;3.85;2.42;;;8.80;99.90;;;;;;6186849;23;20015;-88
2021/12/24 16:36:06;;;;;;;3.58;2.80;;;8.80;99.90;;;;;;6164206;23;20012;-88
2021/12/24 16:38:40;;;;;;;3.08;2.50;;;8.80;99.90;;;;;;6164114;23;20115;-89
2021/12/24 16:41:18;;;;;;;3.05;2.72;;;8.80;99.90;;;;;;6186320;23;20044;-87
2021/12/24 16:44:15;;;;;;;;;;;;;;;;;;;;;
2021/12/24 16:46:55;;;;;;;3.70;2.80;;;8.80;99.90;;;;;;6187833;23;20076;-87
2021/12/24 16:49:35;;;;;;;4.28;3.42;;;8.80;99.90;;;;;;6185192;23;20415;-87
2021/12/24 16:52:05;;;;;;;5.63;3.53;;;8.80;99.90;;;;;;6163109;23;20450;-87
2021/12/24 16:54:46;;;;;;;5.40;3.55;;;8.80;99.90;;;;;;6187010;23;20063;-88
2021/12/24 16:57:19;;;;;;;4.87;3.33;;;8.80;99.90;;;;;;6192160;23;20016;-89
2021/12/24 16:59:47;;;;;;;4.45;3.60;;;8.80;99.90;;;;;;6189074;23;20020;-88
2021/12/24 17:02:17;;;;;;;4.20;3.50;;;8.80;99.90;;;;;;6213881;23;20013;-88
2021/12/24 17:04:54;;;;;;;4.05;3.28;;;8.80;99.90;;;;;;6187845;23;20009;-88
2021/12/24 17:07:54;;;;;;;;;;;;;;;;;;;;;
2021/12/24 17:10:37;;;;;;;4.32;3.88;;;8.80;99.90;;;;;;6141530;23;20084;-87
2021/12/24 17:13:14;;;;;;;16.70;11.52;;;8.80;99.90;;;;;;6164603;23;20008;-87
2021/12/24 17:15:51;;;;;;;12.20;9.32;;;8.70;99.90;;;;;;6186918;23;20084;-86
2021/12/24 17:18:19;;;;;;;8.98;6.15;;;8.80;99.90;;;;;;6188158;23;20009;-86
2021/12/24 17:20:48;;;;;;;8.30;6.47;;;8.80;99.90;;;;;;6186678;23;20162;-87
2021/12/24 17:23:16;;;;;;;8.32;6.97;;;8.70;99.90;;;;;;6185900;23;20340;-86
2021/12/24 17:25:52;;;;;;;;;;;;;;;;;;;;;
2021/12/24 17:28:21;;;;;;;5.55;4.97;;;8.70;99.90;;;;;;6187104;23;20052;-86
2021/12/24 17:30:58;;;;;;;5.20;4.15;;;8.70;99.90;;;;;;6185091;23;20047;-86
2021/12/24 17:33:27;;;;;;;5.20;4.53;;;8.70;99.90;;;;;;6162325;23;20004;-86
2021/12/24 17:35:55;;;;;;;5.60;4.80;;;8.70;99.90;;;;;;6160855;23;20107;-87
2021/12/24 17:38:21;;;;;;;5.78;4.78;;;8.70;99.90;;;;;;6185652;23;20005;-87
2021/12/24 17:40:48;;;;;;;5.47;4.25;;;8.70;99.90;;;;;;6184901;23;20507;-87
2021/12/24 17:43:20;;;;;;;7.30;5.25;;;8.60;99.90;;;;;;6185421;23;20323;-86
2021/12/24 17:45:46;;;;;;;;;;;8.60;99.90;;;;;;6186202;23;20001;-86
2021/12/24 17:48:28;;;;;;;8.50;5.18;;;8.60;99.90;;;;;;6160844;23;19912;-85
2021/12/24 17:54:35;;;;;;;8.18;4.57;;;8.50;99.90;;;;;;6097273;23;20009;-87
2021/12/24 17:57:02;;;;;;;7.03;4.40;;;8.50;99.90;;;;;;6184635;23;20011;-87
2021/12/24 17:59:33;;;;;;;6.78;4.38;;;8.50;99.90;;;;;;6185825;23;20004;-86
2021/12/24 18:02:04;;;;;;;6.38;4.35;;;8.50;99.90;;;;;;6185545;23;20008;-86
2021/12/24 18:04:32;;;;;;;8.88;7.45;;;8.40;99.90;;;;;;6185088;23;20012;-86
2021/12/24 18:07:02;;;;;;;7.55;5.75;;;8.40;99.90;;;;;;6185984;23;20424;-86
2021/12/24 18:09:35;;;;;;;6.70;4.90;;;8.40;99.90;;;;;;6186334;23;19998;-87
2021/12/24 18:12:02;;;;;;;5.85;4.65;;;8.40;99.90;;;;;;6186605;23;20439;-85
2021/12/24 18:14:32;;;;;;;5.50;4.18;;;8.40;99.90;;;;;;6162124;23;20033;-86
2021/12/24 18:16:59;;;;;;;5.90;5.00;;;8.40;99.90;;;;;;6187318;23;20439;-87
2021/12/24 18:19:30;;;;;;;6.45;4.78;;;8.30;99.90;;;;;;6188740;23;20017;-87
2021/12/24 18:21:56;;;;;;;6.95;5.28;;;8.30;99.90;;;;;;6188247;23;20005;-86
2021/12/24 18:24:31;;;;;;;;;;;;;;;;;;;;;
2021/12/24 18:27:01;;;;;;;7.60;5.68;;;8.30;99.90;;;;;;6190623;23;20395;-88
2021/12/24 18:29:32;;;;;;;6.13;4.70;;;8.30;99.90;;;;;;6186869;23;20005;-86
2021/12/24 18:32:11;;;;;;;;;;;;;;;;;;;;;